INJ248 LGKR-LCPH
Flight info
| Callsign | INJ248 |
|---|---|
| Flight time | 1h 40m |
| Altitude | 37000 |
| Route | MALED DCT ELVAS DCT IXONI DCT PIKAD DCT KOR UN604 ATV UL995 RDS UM601 EVENO M601 DASNI M32 TOBAL |
| Aircraft | B738/M-LGTS/L |
Departure
| Time | 2026-04-20 16:33 |
|---|---|
| Airport | Corfu Ioannis Kapodistrias International Airport (LGKR) |
Arrival
| Time | 2026-04-20 18:14 |
|---|---|
| Airport | Paphos International Airport (LCPH) |
| Time | Latitude | Longitude | Altitude | Speed | Heading |
|---|---|---|---|---|---|
| 2026-04-20 16:14 | 39.60704 | 19.91354 | 14 ft | 0 kts | 78° |
| 2026-04-20 16:22 | 39.60701 | 19.91340 | 14 ft | 2 kts | 76° |
| 2026-04-20 16:23 | 39.60694 | 19.91318 | 14 ft | 3 kts | 58° |
| 2026-04-20 16:23 | 39.60681 | 19.91298 | 14 ft | 3 kts | 38° |
| 2026-04-20 16:23 | 39.60663 | 19.91285 | 14 ft | 3 kts | 19° |
| 2026-04-20 16:23 | 39.60643 | 19.91281 | 14 ft | 3 kts | 1° |
| 2026-04-20 16:24 | 39.60626 | 19.91283 | 14 ft | 0 kts | 348° |
| 2026-04-20 16:27 | 39.60627 | 19.91283 | 14 ft | 2 kts | 348° |
| 2026-04-20 16:28 | 39.60646 | 19.91277 | 14 ft | 1 kts | 348° |
| 2026-04-20 16:28 | 39.60647 | 19.91277 | 14 ft | 0 kts | 348° |
| 2026-04-20 16:29 | 39.60650 | 19.91276 | 14 ft | 5 kts | 349° |
| 2026-04-20 16:30 | 39.60727 | 19.91222 | 14 ft | 17 kts | 327° |
| 2026-04-20 16:30 | 39.60835 | 19.91182 | 14 ft | 14 kts | 349° |
| 2026-04-20 16:30 | 39.60903 | 19.91165 | 14 ft | 6 kts | 349° |
| 2026-04-20 16:30 | 39.60920 | 19.91161 | 14 ft | 0 kts | 349° |
| 2026-04-20 16:31 | 39.60957 | 19.91152 | 14 ft | 11 kts | 349° |
| 2026-04-20 16:31 | 39.61044 | 19.91127 | 14 ft | 12 kts | 347° |
| 2026-04-20 16:31 | 39.61110 | 19.91108 | 14 ft | 12 kts | 347° |
| 2026-04-20 16:31 | 39.61180 | 19.91086 | 14 ft | 7 kts | 330° |
| 2026-04-20 16:32 | 39.61216 | 19.91045 | 14 ft | 9 kts | 310° |
| 2026-04-20 16:32 | 39.61234 | 19.90979 | 14 ft | 7 kts | 242° |
| 2026-04-20 16:32 | 39.61180 | 19.90960 | 14 ft | 7 kts | 172° |
| 2026-04-20 16:32 | 39.61178 | 19.90960 | 14 ft | 0 kts | 172° |
| 2026-04-20 16:33 | 39.61076 | 19.90985 | 14 ft | 44 kts | 168° |
| 2026-04-20 16:33 | 39.60544 | 19.91122 | 14 ft | 110 kts | 168° |
| 2026-04-20 16:33 | 39.59607 | 19.91364 | 96 ft | 156 kts | 168° |
| 2026-04-20 16:33 | 39.58523 | 19.91648 | 739 ft | 163 kts | 167° |
| 2026-04-20 16:34 | 39.57457 | 19.92199 | 1453 ft | 171 kts | 150° |
| 2026-04-20 16:34 | 39.56817 | 19.92838 | 1887 ft | 177 kts | 139° |
| 2026-04-20 16:34 | 39.55564 | 19.94309 | 2743 ft | 189 kts | 139° |
| 2026-04-20 16:34 | 39.54897 | 19.95084 | 3173 ft | 195 kts | 139° |
| 2026-04-20 16:35 | 39.53859 | 19.96290 | 3804 ft | 206 kts | 139° |
| 2026-04-20 16:35 | 39.52768 | 19.97557 | 4447 ft | 213 kts | 139° |
| 2026-04-20 16:35 | 39.51641 | 19.98865 | 5074 ft | 222 kts | 139° |
| 2026-04-20 16:35 | 39.50462 | 20.00232 | 5696 ft | 231 kts | 139° |
| 2026-04-20 16:36 | 39.49257 | 20.01630 | 6325 ft | 240 kts | 139° |
| 2026-04-20 16:36 | 39.47980 | 20.03109 | 6964 ft | 249 kts | 139° |
| 2026-04-20 16:36 | 39.46665 | 20.04634 | 7599 ft | 258 kts | 139° |
| 2026-04-20 16:36 | 39.45321 | 20.06191 | 8224 ft | 267 kts | 139° |
| 2026-04-20 16:37 | 39.43952 | 20.07753 | 8796 ft | 277 kts | 140° |
| 2026-04-20 16:37 | 39.42405 | 20.09388 | 9358 ft | 290 kts | 142° |
| 2026-04-20 16:37 | 39.40803 | 20.11031 | 9872 ft | 302 kts | 142° |
| 2026-04-20 16:37 | 39.39212 | 20.12666 | 10494 ft | 310 kts | 142° |
| 2026-04-20 16:38 | 39.37704 | 20.14233 | 10918 ft | 323 kts | 142° |
| 2026-04-20 16:38 | 39.35886 | 20.16115 | 11209 ft | 344 kts | 142° |
| 2026-04-20 16:38 | 39.33986 | 20.18079 | 11471 ft | 364 kts | 142° |
| 2026-04-20 16:38 | 39.31963 | 20.20166 | 11867 ft | 378 kts | 142° |
| 2026-04-20 16:39 | 39.29887 | 20.22305 | 12486 ft | 384 kts | 142° |
| 2026-04-20 16:39 | 39.27794 | 20.24459 | 13192 ft | 388 kts | 142° |
| 2026-04-20 16:39 | 39.25674 | 20.26639 | 13880 ft | 391 kts | 142° |
| 2026-04-20 16:39 | 39.23576 | 20.28924 | 14551 ft | 396 kts | 137° |
| 2026-04-20 16:40 | 39.21729 | 20.31554 | 15199 ft | 399 kts | 127° |
| 2026-04-20 16:40 | 39.20170 | 20.34564 | 15843 ft | 403 kts | 121° |
| 2026-04-20 16:40 | 39.18737 | 20.37696 | 16457 ft | 407 kts | 119° |
| 2026-04-20 16:40 | 39.17345 | 20.40864 | 17055 ft | 411 kts | 119° |
| 2026-04-20 16:41 | 39.15931 | 20.44078 | 17647 ft | 414 kts | 119° |
| 2026-04-20 16:41 | 39.14506 | 20.47302 | 18220 ft | 418 kts | 119° |
| 2026-04-20 16:41 | 39.13052 | 20.50581 | 18762 ft | 422 kts | 119° |
| 2026-04-20 16:41 | 39.11591 | 20.53868 | 19295 ft | 426 kts | 119° |
| 2026-04-20 16:42 | 39.10106 | 20.57200 | 19817 ft | 430 kts | 119° |
| 2026-04-20 16:42 | 39.08608 | 20.60556 | 20326 ft | 434 kts | 119° |
| 2026-04-20 16:42 | 39.07089 | 20.63953 | 20820 ft | 438 kts | 119° |
| 2026-04-20 16:42 | 39.05567 | 20.67350 | 21295 ft | 442 kts | 119° |
| 2026-04-20 16:43 | 39.04031 | 20.70803 | 21763 ft | 446 kts | 119° |
| 2026-04-20 16:43 | 39.02499 | 20.74260 | 22214 ft | 450 kts | 119° |
| 2026-04-20 16:43 | 39.00936 | 20.77775 | 22657 ft | 454 kts | 119° |
| 2026-04-20 16:43 | 38.99376 | 20.81270 | 23083 ft | 457 kts | 119° |
| 2026-04-20 16:44 | 38.97772 | 20.84856 | 23508 ft | 461 kts | 119° |
| 2026-04-20 16:44 | 38.96163 | 20.88445 | 23909 ft | 465 kts | 120° |
| 2026-04-20 16:44 | 38.94530 | 20.92081 | 24328 ft | 467 kts | 120° |
| 2026-04-20 16:44 | 38.92920 | 20.95661 | 24744 ft | 470 kts | 120° |
| 2026-04-20 16:45 | 38.91262 | 20.99340 | 25155 ft | 472 kts | 120° |
| 2026-04-20 16:45 | 38.89624 | 21.02971 | 25547 ft | 475 kts | 120° |
| 2026-04-20 16:45 | 38.87951 | 21.06673 | 25929 ft | 477 kts | 119° |
| 2026-04-20 16:45 | 38.86276 | 21.10375 | 26298 ft | 480 kts | 119° |
| 2026-04-20 16:46 | 38.84595 | 21.14086 | 26655 ft | 482 kts | 119° |
| 2026-04-20 16:46 | 38.82901 | 21.17821 | 26985 ft | 485 kts | 119° |
| 2026-04-20 16:46 | 38.81218 | 21.21528 | 27330 ft | 487 kts | 119° |
| 2026-04-20 16:46 | 38.79505 | 21.25296 | 27676 ft | 489 kts | 119° |
| 2026-04-20 16:47 | 38.77775 | 21.29098 | 27998 ft | 491 kts | 119° |
| 2026-04-20 16:47 | 38.76061 | 21.32858 | 28310 ft | 493 kts | 119° |
| 2026-04-20 16:47 | 38.74327 | 21.36660 | 28610 ft | 496 kts | 119° |
| 2026-04-20 16:47 | 38.72589 | 21.40464 | 28908 ft | 497 kts | 119° |
| 2026-04-20 16:48 | 38.70838 | 21.44292 | 29198 ft | 499 kts | 119° |
| 2026-04-20 16:48 | 38.70050 | 21.46016 | 29331 ft | 500 kts | 119° |
| 2026-04-20 16:48 | 38.68311 | 21.49825 | 29636 ft | 501 kts | 119° |
| 2026-04-20 16:48 | 38.66541 | 21.53719 | 30042 ft | 499 kts | 119° |
| 2026-04-20 16:49 | 38.64804 | 21.57516 | 30397 ft | 499 kts | 120° |
| 2026-04-20 16:49 | 38.63041 | 21.61349 | 30714 ft | 500 kts | 120° |
| 2026-04-20 16:49 | 38.61279 | 21.65171 | 31060 ft | 499 kts | 120° |
| 2026-04-20 16:49 | 38.59510 | 21.68998 | 31390 ft | 499 kts | 120° |
| 2026-04-20 16:50 | 38.57749 | 21.72805 | 31720 ft | 499 kts | 120° |
| 2026-04-20 16:50 | 38.55982 | 21.76620 | 32039 ft | 498 kts | 120° |
| 2026-04-20 16:50 | 38.54217 | 21.80427 | 32351 ft | 498 kts | 120° |
| 2026-04-20 16:50 | 38.52440 | 21.84256 | 32637 ft | 499 kts | 120° |
| 2026-04-20 16:51 | 38.50577 | 21.87988 | 32940 ft | 499 kts | 124° |
| 2026-04-20 16:51 | 38.48608 | 21.91629 | 33222 ft | 499 kts | 125° |
| 2026-04-20 16:51 | 38.46630 | 21.95256 | 33523 ft | 498 kts | 124° |
| 2026-04-20 16:51 | 38.44656 | 21.98892 | 33809 ft | 498 kts | 124° |
| 2026-04-20 16:52 | 38.42680 | 22.02542 | 34096 ft | 498 kts | 124° |
| 2026-04-20 16:52 | 38.40707 | 22.06190 | 34389 ft | 498 kts | 124° |
| 2026-04-20 16:52 | 38.38764 | 22.09783 | 34646 ft | 498 kts | 124° |
| 2026-04-20 16:52 | 38.36795 | 22.13426 | 34925 ft | 497 kts | 124° |
| 2026-04-20 16:53 | 38.34836 | 22.17049 | 35203 ft | 497 kts | 124° |
| 2026-04-20 16:53 | 38.32874 | 22.20678 | 35469 ft | 496 kts | 124° |
| 2026-04-20 16:53 | 38.30915 | 22.24299 | 35705 ft | 497 kts | 124° |
| 2026-04-20 16:53 | 38.28942 | 22.27935 | 35956 ft | 496 kts | 124° |
| 2026-04-20 16:54 | 38.27005 | 22.31500 | 36213 ft | 496 kts | 124° |
| 2026-04-20 16:54 | 38.25038 | 22.35116 | 36446 ft | 496 kts | 125° |
| 2026-04-20 16:54 | 38.23085 | 22.38741 | 36683 ft | 495 kts | 124° |
| 2026-04-20 16:54 | 38.21135 | 22.42352 | 36913 ft | 495 kts | 124° |
| 2026-04-20 16:55 | 38.17215 | 22.49556 | 36991 ft | 498 kts | 125° |
| 2026-04-20 16:55 | 38.13279 | 22.56754 | 36993 ft | 494 kts | 124° |
| 2026-04-20 16:56 | 38.09350 | 22.63923 | 36999 ft | 494 kts | 125° |
| 2026-04-20 16:56 | 38.05421 | 22.71093 | 37000 ft | 494 kts | 124° |
| 2026-04-20 16:57 | 38.01487 | 22.78270 | 37006 ft | 494 kts | 124° |
| 2026-04-20 16:57 | 37.97586 | 22.85353 | 37016 ft | 493 kts | 124° |
| 2026-04-20 16:58 | 37.94086 | 22.92775 | 37020 ft | 491 kts | 110° |
| 2026-04-20 16:58 | 37.92518 | 23.01119 | 37025 ft | 485 kts | 92° |
| 2026-04-20 16:59 | 37.92173 | 23.09632 | 37024 ft | 483 kts | 89° |
| 2026-04-20 16:59 | 37.91843 | 23.18166 | 37023 ft | 484 kts | 90° |
| 2026-04-20 17:00 | 37.91270 | 23.30921 | 37023 ft | 484 kts | 90° |
| 2026-04-20 17:01 | 37.90885 | 23.39222 | 37023 ft | 484 kts | 89° |
| 2026-04-20 17:01 | 37.90523 | 23.47751 | 37023 ft | 484 kts | 90° |
| 2026-04-20 17:02 | 37.90109 | 23.56330 | 37023 ft | 484 kts | 90° |
| 2026-04-20 17:02 | 37.89679 | 23.64806 | 37023 ft | 484 kts | 90° |
| 2026-04-20 17:03 | 37.88835 | 23.76643 | 37019 ft | 488 kts | 101° |
| 2026-04-20 17:03 | 37.87274 | 23.81991 | 37023 ft | 492 kts | 117° |
| 2026-04-20 17:04 | 37.84031 | 23.87920 | 37025 ft | 493 kts | 130° |
| 2026-04-20 17:04 | 37.79557 | 23.94493 | 37023 ft | 493 kts | 131° |
| 2026-04-20 17:05 | 37.75103 | 24.01084 | 37024 ft | 493 kts | 130° |
| 2026-04-20 17:05 | 37.70691 | 24.07672 | 37024 ft | 493 kts | 130° |
| 2026-04-20 17:06 | 37.66228 | 24.14303 | 37023 ft | 493 kts | 130° |
| 2026-04-20 17:06 | 37.61784 | 24.20889 | 37024 ft | 493 kts | 130° |
| 2026-04-20 17:07 | 37.57472 | 24.27592 | 37023 ft | 493 kts | 123° |
| 2026-04-20 17:07 | 37.54279 | 24.35198 | 37024 ft | 491 kts | 109° |
| 2026-04-20 17:08 | 37.52121 | 24.43333 | 37023 ft | 490 kts | 105° |
| 2026-04-20 17:08 | 37.50030 | 24.51498 | 37024 ft | 490 kts | 106° |
| 2026-04-20 17:09 | 37.47907 | 24.59655 | 37023 ft | 490 kts | 106° |
| 2026-04-20 17:09 | 37.45804 | 24.67758 | 37023 ft | 490 kts | 105° |
| 2026-04-20 17:10 | 37.43690 | 24.75922 | 37023 ft | 490 kts | 106° |
| 2026-04-20 17:10 | 37.41541 | 24.84067 | 37024 ft | 490 kts | 106° |
| 2026-04-20 17:11 | 37.39390 | 24.92159 | 37023 ft | 490 kts | 107° |
| 2026-04-20 17:11 | 37.37218 | 25.00306 | 37024 ft | 490 kts | 107° |
| 2026-04-20 17:12 | 37.35074 | 25.08394 | 37023 ft | 490 kts | 106° |
| 2026-04-20 17:12 | 37.33517 | 25.14236 | 37036 ft | 488 kts | 108° |
| 2026-04-20 17:13 | 37.31339 | 25.22346 | 36991 ft | 496 kts | 108° |
| 2026-04-20 17:13 | 37.29112 | 25.30609 | 36982 ft | 500 kts | 108° |
| 2026-04-20 17:14 | 37.26852 | 25.38881 | 36976 ft | 498 kts | 110° |
| 2026-04-20 17:14 | 37.24183 | 25.46861 | 36980 ft | 499 kts | 111° |
| 2026-04-20 17:15 | 37.21546 | 25.54942 | 36981 ft | 499 kts | 112° |
| 2026-04-20 17:15 | 37.18856 | 25.62982 | 36984 ft | 500 kts | 112° |
| 2026-04-20 17:16 | 37.16160 | 25.71021 | 36982 ft | 499 kts | 112° |
| 2026-04-20 17:16 | 37.13470 | 25.79025 | 36982 ft | 499 kts | 112° |
| 2026-04-20 17:17 | 37.10766 | 25.87056 | 36982 ft | 500 kts | 112° |
| 2026-04-20 17:17 | 37.08110 | 25.95092 | 36982 ft | 499 kts | 112° |
| 2026-04-20 17:18 | 37.05410 | 26.03126 | 36982 ft | 501 kts | 113° |
| 2026-04-20 17:18 | 37.02690 | 26.11155 | 36981 ft | 501 kts | 113° |
| 2026-04-20 17:19 | 36.99964 | 26.19170 | 36980 ft | 500 kts | 113° |
| 2026-04-20 17:19 | 36.97248 | 26.27180 | 36980 ft | 500 kts | 112° |
| 2026-04-20 17:20 | 36.94553 | 26.35151 | 36977 ft | 501 kts | 113° |
| 2026-04-20 17:20 | 36.91827 | 26.43161 | 36976 ft | 499 kts | 113° |
| 2026-04-20 17:21 | 36.89094 | 26.51170 | 36973 ft | 501 kts | 113° |
| 2026-04-20 17:21 | 36.86349 | 26.59199 | 36970 ft | 502 kts | 113° |
| 2026-04-20 17:22 | 36.83595 | 26.67207 | 36969 ft | 501 kts | 113° |
| 2026-04-20 17:22 | 36.80857 | 26.75153 | 36968 ft | 501 kts | 114° |
| 2026-04-20 17:23 | 36.78125 | 26.83143 | 36966 ft | 501 kts | 113° |
| 2026-04-20 17:23 | 36.75466 | 26.90845 | 36968 ft | 501 kts | 114° |
| 2026-04-20 17:24 | 36.72696 | 26.98816 | 36964 ft | 501 kts | 114° |
| 2026-04-20 17:24 | 36.69916 | 27.06792 | 36963 ft | 501 kts | 114° |
| 2026-04-20 17:25 | 36.67139 | 27.14750 | 36964 ft | 501 kts | 114° |
| 2026-04-20 17:25 | 36.64364 | 27.22656 | 36962 ft | 501 kts | 114° |
| 2026-04-20 17:26 | 36.61564 | 27.30612 | 36962 ft | 501 kts | 114° |
| 2026-04-20 17:26 | 36.58773 | 27.38568 | 36963 ft | 500 kts | 114° |
| 2026-04-20 17:27 | 36.56017 | 27.46465 | 36958 ft | 501 kts | 114° |
| 2026-04-20 17:27 | 36.53203 | 27.54424 | 36952 ft | 503 kts | 114° |
| 2026-04-20 17:28 | 36.50380 | 27.62370 | 36951 ft | 502 kts | 114° |
| 2026-04-20 17:28 | 36.47551 | 27.70313 | 36943 ft | 503 kts | 115° |
| 2026-04-20 17:29 | 36.44727 | 27.78282 | 36942 ft | 503 kts | 114° |
| 2026-04-20 17:29 | 36.41910 | 27.86176 | 36941 ft | 502 kts | 115° |
| 2026-04-20 17:30 | 36.39061 | 27.94111 | 36937 ft | 503 kts | 115° |
| 2026-04-20 17:30 | 36.36208 | 28.02038 | 36935 ft | 503 kts | 115° |
| 2026-04-20 17:31 | 36.33466 | 28.09961 | 36934 ft | 503 kts | 110° |
| 2026-04-20 17:31 | 36.31347 | 28.18274 | 36936 ft | 502 kts | 106° |
| 2026-04-20 17:32 | 36.29310 | 28.26508 | 36935 ft | 502 kts | 107° |
| 2026-04-20 17:32 | 36.27201 | 28.34778 | 36934 ft | 503 kts | 108° |
| 2026-04-20 17:33 | 36.25092 | 28.42962 | 36945 ft | 498 kts | 107° |
| 2026-04-20 17:33 | 36.22987 | 28.51097 | 36946 ft | 493 kts | 107° |
| 2026-04-20 17:34 | 36.20964 | 28.58848 | 36946 ft | 496 kts | 107° |
| 2026-04-20 17:34 | 36.19426 | 28.64723 | 36931 ft | 497 kts | 108° |
| 2026-04-20 17:35 | 36.17288 | 28.72863 | 36926 ft | 503 kts | 108° |
| 2026-04-20 17:35 | 36.15116 | 28.81108 | 36924 ft | 502 kts | 108° |
| 2026-04-20 17:36 | 36.12976 | 28.89207 | 36921 ft | 500 kts | 108° |
| 2026-04-20 17:36 | 36.10806 | 28.97534 | 36921 ft | 501 kts | 108° |
| 2026-04-20 17:37 | 36.08663 | 29.05684 | 36919 ft | 501 kts | 108° |
| 2026-04-20 17:37 | 36.06501 | 29.13859 | 36919 ft | 500 kts | 108° |
| 2026-04-20 17:38 | 36.04346 | 29.22040 | 36916 ft | 500 kts | 108° |
| 2026-04-20 17:38 | 36.02173 | 29.30210 | 36920 ft | 500 kts | 109° |
| 2026-04-20 17:39 | 35.99984 | 29.38361 | 36925 ft | 500 kts | 109° |
| 2026-04-20 17:39 | 35.97797 | 29.46473 | 36924 ft | 499 kts | 109° |
| 2026-04-20 17:40 | 35.95600 | 29.54612 | 36923 ft | 500 kts | 109° |
| 2026-04-20 17:40 | 35.93397 | 29.62800 | 36923 ft | 500 kts | 109° |
| 2026-04-20 17:41 | 35.91228 | 29.70945 | 36923 ft | 499 kts | 109° |
| 2026-04-20 17:41 | 35.89041 | 29.79038 | 36924 ft | 500 kts | 109° |
| 2026-04-20 17:42 | 35.86822 | 29.87202 | 36925 ft | 501 kts | 109° |
| 2026-04-20 17:42 | 35.84601 | 29.95347 | 36926 ft | 501 kts | 109° |
| 2026-04-20 17:43 | 35.82435 | 30.03448 | 36929 ft | 501 kts | 108° |
| 2026-04-20 17:43 | 35.80371 | 30.11682 | 36930 ft | 501 kts | 108° |
| 2026-04-20 17:44 | 35.78649 | 30.18502 | 36563 ft | 501 kts | 108° |
| 2026-04-20 17:44 | 35.77612 | 30.22593 | 35987 ft | 499 kts | 108° |
| 2026-04-20 17:44 | 35.76237 | 30.28001 | 35083 ft | 500 kts | 108° |
| 2026-04-20 17:44 | 35.75195 | 30.32093 | 34388 ft | 501 kts | 108° |
| 2026-04-20 17:45 | 35.74148 | 30.36197 | 33680 ft | 502 kts | 108° |
| 2026-04-20 17:45 | 35.73441 | 30.38967 | 33191 ft | 502 kts | 108° |
| 2026-04-20 17:45 | 35.72417 | 30.43025 | 32483 ft | 503 kts | 107° |
| 2026-04-20 17:45 | 35.71384 | 30.47126 | 31936 ft | 499 kts | 107° |
| 2026-04-20 17:46 | 35.70372 | 30.51184 | 31402 ft | 495 kts | 107° |
| 2026-04-20 17:46 | 35.69351 | 30.55221 | 30872 ft | 491 kts | 108° |
| 2026-04-20 17:46 | 35.68329 | 30.59224 | 30349 ft | 487 kts | 108° |
| 2026-04-20 17:46 | 35.67309 | 30.63193 | 29834 ft | 483 kts | 108° |
| 2026-04-20 17:47 | 35.66296 | 30.67123 | 29332 ft | 479 kts | 108° |
| 2026-04-20 17:47 | 35.65288 | 30.71022 | 28836 ft | 476 kts | 108° |
| 2026-04-20 17:47 | 35.64301 | 30.74836 | 28350 ft | 472 kts | 108° |
| 2026-04-20 17:47 | 35.63309 | 30.78661 | 27862 ft | 468 kts | 108° |
| 2026-04-20 17:48 | 35.62234 | 30.82472 | 27370 ft | 464 kts | 112° |
| 2026-04-20 17:48 | 35.60927 | 30.86090 | 26885 ft | 460 kts | 117° |
| 2026-04-20 17:48 | 35.59386 | 30.89460 | 26408 ft | 456 kts | 123° |
| 2026-04-20 17:48 | 35.57670 | 30.92724 | 25927 ft | 452 kts | 125° |
| 2026-04-20 17:49 | 35.55917 | 30.95925 | 25447 ft | 449 kts | 125° |
| 2026-04-20 17:49 | 35.54187 | 30.99094 | 24975 ft | 445 kts | 124° |
| 2026-04-20 17:49 | 35.52480 | 31.02230 | 24507 ft | 442 kts | 124° |
| 2026-04-20 17:49 | 35.50769 | 31.05381 | 24033 ft | 439 kts | 124° |
| 2026-04-20 17:50 | 35.49085 | 31.08487 | 23566 ft | 435 kts | 124° |
| 2026-04-20 17:50 | 35.47429 | 31.11544 | 23105 ft | 432 kts | 124° |
| 2026-04-20 17:50 | 35.45773 | 31.14601 | 22641 ft | 429 kts | 124° |
| 2026-04-20 17:50 | 35.44126 | 31.17644 | 22179 ft | 426 kts | 124° |
| 2026-04-20 17:51 | 35.42499 | 31.20652 | 21721 ft | 423 kts | 124° |
| 2026-04-20 17:51 | 35.40889 | 31.23660 | 21263 ft | 420 kts | 124° |
| 2026-04-20 17:51 | 35.39288 | 31.26641 | 20806 ft | 417 kts | 124° |
| 2026-04-20 17:51 | 35.37690 | 31.29612 | 20349 ft | 414 kts | 124° |
| 2026-04-20 17:52 | 35.36110 | 31.32543 | 19898 ft | 411 kts | 124° |
| 2026-04-20 17:52 | 35.34545 | 31.35443 | 19452 ft | 408 kts | 124° |
| 2026-04-20 17:52 | 35.32980 | 31.38338 | 19006 ft | 405 kts | 123° |
| 2026-04-20 17:52 | 35.31427 | 31.41207 | 18562 ft | 402 kts | 123° |
| 2026-04-20 17:53 | 35.29891 | 31.44042 | 18124 ft | 399 kts | 123° |
| 2026-04-20 17:53 | 35.28382 | 31.46825 | 17695 ft | 394 kts | 123° |
| 2026-04-20 17:53 | 35.27759 | 31.47972 | 17525 ft | 393 kts | 123° |
| 2026-04-20 17:53 | 35.26250 | 31.50752 | 17117 ft | 389 kts | 123° |
| 2026-04-20 17:54 | 35.24762 | 31.53490 | 16686 ft | 385 kts | 123° |
| 2026-04-20 17:54 | 35.23281 | 31.56212 | 16261 ft | 383 kts | 123° |
| 2026-04-20 17:54 | 35.21808 | 31.58918 | 15840 ft | 381 kts | 123° |
| 2026-04-20 17:54 | 35.20337 | 31.61618 | 15419 ft | 379 kts | 123° |
| 2026-04-20 17:55 | 35.18879 | 31.64292 | 15005 ft | 377 kts | 123° |
| 2026-04-20 17:55 | 35.17430 | 31.66947 | 14593 ft | 375 kts | 123° |
| 2026-04-20 17:55 | 35.15989 | 31.69586 | 14183 ft | 372 kts | 123° |
| 2026-04-20 17:55 | 35.14553 | 31.72214 | 13776 ft | 370 kts | 123° |
| 2026-04-20 17:56 | 35.13127 | 31.74822 | 13371 ft | 368 kts | 123° |
| 2026-04-20 17:56 | 35.11718 | 31.77395 | 12972 ft | 366 kts | 123° |
| 2026-04-20 17:56 | 35.10304 | 31.79984 | 12567 ft | 362 kts | 123° |
| 2026-04-20 17:56 | 35.08930 | 31.82512 | 12180 ft | 353 kts | 123° |
| 2026-04-20 17:57 | 35.07585 | 31.84977 | 11802 ft | 345 kts | 123° |
| 2026-04-20 17:57 | 35.06265 | 31.87388 | 11430 ft | 337 kts | 123° |
| 2026-04-20 17:57 | 35.04976 | 31.89736 | 11146 ft | 327 kts | 123° |
| 2026-04-20 17:57 | 35.03749 | 31.91967 | 10965 ft | 315 kts | 123° |
| 2026-04-20 17:58 | 35.02542 | 31.94159 | 10792 ft | 303 kts | 123° |
| 2026-04-20 17:58 | 35.01384 | 31.96258 | 10626 ft | 292 kts | 123° |
| 2026-04-20 17:58 | 35.00318 | 31.98189 | 10473 ft | 282 kts | 123° |
| 2026-04-20 17:58 | 34.99675 | 31.99355 | 10398 ft | 279 kts | 123° |
| 2026-04-20 17:59 | 34.98582 | 32.01333 | 10243 ft | 288 kts | 123° |
| 2026-04-20 17:59 | 34.97456 | 32.03371 | 10081 ft | 292 kts | 123° |
| 2026-04-20 17:59 | 34.96320 | 32.05425 | 9869 ft | 291 kts | 123° |
| 2026-04-20 17:59 | 34.95187 | 32.07474 | 9600 ft | 289 kts | 123° |
| 2026-04-20 18:00 | 34.94071 | 32.09490 | 9329 ft | 282 kts | 123° |
| 2026-04-20 18:00 | 34.92986 | 32.11452 | 9064 ft | 276 kts | 123° |
| 2026-04-20 18:00 | 34.91918 | 32.13386 | 8807 ft | 275 kts | 123° |
| 2026-04-20 18:00 | 34.90845 | 32.15323 | 8557 ft | 279 kts | 123° |
| 2026-04-20 18:01 | 34.89751 | 32.17296 | 8294 ft | 284 kts | 123° |
| 2026-04-20 18:01 | 34.88626 | 32.19319 | 8013 ft | 289 kts | 123° |
| 2026-04-20 18:01 | 34.87512 | 32.21318 | 7729 ft | 289 kts | 123° |
| 2026-04-20 18:01 | 34.86384 | 32.23343 | 7439 ft | 288 kts | 123° |
| 2026-04-20 18:02 | 34.85259 | 32.25360 | 7148 ft | 287 kts | 123° |
| 2026-04-20 18:02 | 34.84138 | 32.27367 | 6856 ft | 286 kts | 123° |
| 2026-04-20 18:02 | 34.83029 | 32.29352 | 6566 ft | 285 kts | 123° |
| 2026-04-20 18:02 | 34.81912 | 32.31351 | 6270 ft | 284 kts | 124° |
| 2026-04-20 18:03 | 34.80797 | 32.33334 | 5977 ft | 284 kts | 124° |
| 2026-04-20 18:03 | 34.79688 | 32.35316 | 5680 ft | 283 kts | 124° |
| 2026-04-20 18:03 | 34.78685 | 32.37121 | 5410 ft | 282 kts | 124° |
| 2026-04-20 18:03 | 34.77594 | 32.39087 | 5115 ft | 281 kts | 124° |
| 2026-04-20 18:04 | 34.76503 | 32.41059 | 4817 ft | 280 kts | 124° |
| 2026-04-20 18:04 | 34.75420 | 32.43017 | 4609 ft | 276 kts | 124° |
| 2026-04-20 18:04 | 34.74360 | 32.44938 | 4449 ft | 269 kts | 124° |
| 2026-04-20 18:04 | 34.73330 | 32.46805 | 4298 ft | 261 kts | 124° |
| 2026-04-20 18:05 | 34.71365 | 32.50374 | 4001 ft | 247 kts | 124° |
| 2026-04-20 18:05 | 34.70329 | 32.52003 | 3852 ft | 240 kts | 131° |
| 2026-04-20 18:05 | 34.69242 | 32.53518 | 3668 ft | 236 kts | 132° |
| 2026-04-20 18:06 | 34.68168 | 32.55004 | 3409 ft | 236 kts | 132° |
| 2026-04-20 18:06 | 34.67081 | 32.56509 | 3101 ft | 237 kts | 132° |
| 2026-04-20 18:06 | 34.65991 | 32.58019 | 2794 ft | 236 kts | 132° |
| 2026-04-20 18:06 | 34.64915 | 32.59522 | 2467 ft | 236 kts | 130° |
| 2026-04-20 18:07 | 34.63911 | 32.61102 | 2144 ft | 236 kts | 130° |
| 2026-04-20 18:07 | 34.62871 | 32.62562 | 2057 ft | 224 kts | 132° |
| 2026-04-20 18:07 | 34.61871 | 32.63954 | 2048 ft | 214 kts | 132° |
| 2026-04-20 18:07 | 34.60904 | 32.65301 | 2050 ft | 209 kts | 132° |
| 2026-04-20 18:08 | 34.59986 | 32.66651 | 2041 ft | 207 kts | 122° |
| 2026-04-20 18:08 | 34.59733 | 32.68326 | 2000 ft | 204 kts | 76° |
| 2026-04-20 18:08 | 34.60482 | 32.69715 | 2031 ft | 198 kts | 31° |
| 2026-04-20 18:08 | 34.61760 | 32.70105 | 2081 ft | 194 kts | 355° |
| 2026-04-20 18:09 | 34.63050 | 32.69737 | 2136 ft | 188 kts | 334° |
| 2026-04-20 18:09 | 34.64127 | 32.68867 | 2141 ft | 183 kts | 318° |
| 2026-04-20 18:09 | 34.65031 | 32.67818 | 2115 ft | 176 kts | 313° |
| 2026-04-20 18:09 | 34.65836 | 32.66741 | 2109 ft | 166 kts | 310° |
| 2026-04-20 18:10 | 34.66505 | 32.65657 | 2072 ft | 159 kts | 300° |
| 2026-04-20 18:10 | 34.66973 | 32.64438 | 2080 ft | 155 kts | 292° |
| 2026-04-20 18:10 | 34.67341 | 32.63243 | 2121 ft | 151 kts | 290° |
| 2026-04-20 18:10 | 34.67700 | 32.62054 | 2067 ft | 149 kts | 290° |
| 2026-04-20 18:11 | 34.68017 | 32.61005 | 1934 ft | 148 kts | 290° |
| 2026-04-20 18:11 | 34.68372 | 32.59836 | 1742 ft | 146 kts | 290° |
| 2026-04-20 18:11 | 34.68717 | 32.58697 | 1586 ft | 143 kts | 291° |
| 2026-04-20 18:11 | 34.69063 | 32.57556 | 1365 ft | 142 kts | 291° |
| 2026-04-20 18:12 | 34.69402 | 32.56441 | 1175 ft | 142 kts | 291° |
| 2026-04-20 18:12 | 34.69744 | 32.55314 | 987 ft | 142 kts | 291° |
| 2026-04-20 18:12 | 34.70086 | 32.54187 | 797 ft | 142 kts | 291° |
| 2026-04-20 18:12 | 34.70427 | 32.53064 | 609 ft | 141 kts | 291° |
| 2026-04-20 18:13 | 34.70762 | 32.51958 | 425 ft | 141 kts | 291° |
| 2026-04-20 18:13 | 34.71088 | 32.50838 | 244 ft | 140 kts | 291° |
| 2026-04-20 18:13 | 34.71430 | 32.49742 | 60 ft | 136 kts | 292° |
| 2026-04-20 18:13 | 34.71711 | 32.48844 | 49 ft | 66 kts | 289° |
| 2026-04-20 18:14 | 34.71760 | 32.48677 | 49 ft | 10 kts | 290° |
| 2026-04-20 18:14 | 34.71794 | 32.48562 | 49 ft | 17 kts | 290° |
| 2026-04-20 18:14 | 34.71812 | 32.48457 | 49 ft | 9 kts | 252° |
| 2026-04-20 18:14 | 34.71779 | 32.48414 | 49 ft | 3 kts | 208° |
| 2026-04-20 18:15 | 34.71763 | 32.48405 | 49 ft | 6 kts | 202° |
| 2026-04-20 18:15 | 34.71670 | 32.48363 | 49 ft | 15 kts | 200° |
| 2026-04-20 18:15 | 34.71582 | 32.48324 | 49 ft | 17 kts | 200° |
| 2026-04-20 18:15 | 34.71479 | 32.48278 | 49 ft | 9 kts | 200° |
| 2026-04-20 18:16 | 34.71427 | 32.48269 | 49 ft | 10 kts | 158° |
| 2026-04-20 18:16 | 34.71393 | 32.48327 | 49 ft | 6 kts | 104° |
| 2026-04-20 18:16 | 34.71374 | 32.48394 | 49 ft | 10 kts | 112° |
| 2026-04-20 18:16 | 34.71355 | 32.48450 | 49 ft | 4 kts | 112° |
| 2026-04-20 18:17 | 34.71347 | 32.48514 | 49 ft | 11 kts | 73° |
| 2026-04-20 18:17 | 34.71361 | 32.48554 | 49 ft | 0 kts | 66° |
| 2026-04-20 18:17 | 34.71370 | 32.48580 | 49 ft | 5 kts | 67° |
| 2026-04-20 18:17 | 34.71384 | 32.48621 | 49 ft | 9 kts | 66° |
| 2026-04-20 18:18 | 34.71404 | 32.48674 | 49 ft | 8 kts | 65° |
| 2026-04-20 18:18 | 34.71388 | 32.48714 | 49 ft | 0 kts | 154° |
| 2026-04-20 18:18 | 34.71363 | 32.48727 | 49 ft | 9 kts | 155° |
| 2026-04-20 18:19 | 34.71336 | 32.48742 | 49 ft | 5 kts | 155° |
| 2026-04-20 18:19 | 34.71327 | 32.48747 | 49 ft | 0 kts | 155° |